Pagina principală
METAR-TAF:

METAR-TAF

Aeroporturi :

Regional_Airport

Ruston, Louisiana, Statele Unite ale Americii

Latitudine: 32-30-52N, longitudine: 092-35-18W, elevație: 95 m

Observații meteo curente

Raportul a fost făcut în urmă cu 25 de minute, la 20:55 UTC
Vânt calm
Temperatură 34°C
Umiditate 50%
Presiune 1016 hPa
Vizibilitate: 16.1 km
Nori puțini la o înălțime de 5000 picior

METAR: KRSN 222055Z AUTO 00000KT 10SM FEW050 34/22 A2999 RMK AO2 T03390216 $

Ora: 16:20 (21:20 UTC)


TAF: lipsă

Observații și prognoze meteo pentru peste 4.000 de aeroporturi (rapoarte METAR și TAF).

Stațiile disponibile sunt reprezentate pe hartă prin puncte galbene și roșii.

Țineți indicatorul mouse-ului pe punctul dorit pentru a vedea denumirea stației.

Apoi, faceți clic pentru a vedea observațiile și prognozele meteorologice.

Pentru a schimba harta: Pentru mărire, faceți clic pe butoanele verzi cu cruce neagră; pentru micșorare, pe butonul verde cu o liniuță; pentru hărți învecinate, pe săgețile verzi.


METAR-TAF: